createdAt,value
2018-10-02T00:01:02.554Z,61.00
2018-10-02T00:03:30.791Z,60.80
2018-10-02T00:05:58.963Z,60.90
2018-10-02T00:08:27.133Z,60.80
2018-10-02T00:11:00.709Z,61.00
2018-10-02T00:13:34.315Z,61.00
2018-10-02T00:16:02.488Z,61.10
2018-10-02T00:18:30.670Z,61.10
2018-10-02T00:20:58.833Z,61.10
2018-10-02T00:23:26.995Z,61.20
2018-10-02T00:25:55.178Z,61.40
2018-10-02T00:28:23.383Z,61.40
2018-10-02T00:30:51.575Z,61.50
2018-10-02T00:33:19.756Z,61.40
2018-10-02T00:35:47.919Z,61.50
2018-10-02T00:38:16.086Z,61.60
2018-10-02T00:40:44.275Z,61.70
2018-10-02T00:43:12.441Z,61.80
2018-10-02T00:45:40.587Z,61.80
2018-10-02T00:48:08.793Z,61.90
2018-10-02T00:50:36.973Z,61.80
2018-10-02T00:53:05.127Z,62.00
2018-10-02T00:55:33.283Z,62.20
2018-10-02T00:58:01.451Z,62.20
2018-10-02T01:00:29.635Z,62.30
2018-10-02T01:02:57.810Z,62.40
2018-10-02T01:05:26.042Z,62.40
2018-10-02T01:07:54.241Z,62.60
2018-10-02T01:10:22.413Z,62.80
2018-10-02T01:12:50.793Z,62.90
2018-10-02T01:15:18.966Z,62.90
2018-10-02T01:17:47.114Z,63.00
2018-10-02T01:20:15.306Z,62.90
2018-10-02T01:22:43.543Z,62.90
2018-10-02T01:25:11.723Z,62.90
2018-10-02T01:27:39.894Z,63.80
2018-10-02T01:30:08.067Z,63.20
2018-10-02T01:32:36.448Z,63.10
2018-10-02T01:35:04.695Z,63.40
2018-10-02T01:37:32.854Z,63.50
2018-10-02T01:40:01.022Z,63.50
2018-10-02T01:42:29.185Z,63.50
2018-10-02T01:44:57.341Z,63.30
2018-10-02T01:47:25.518Z,63.40
2018-10-02T01:49:53.666Z,63.40
2018-10-02T01:52:21.846Z,63.40
2018-10-02T01:54:49.996Z,63.50
2018-10-02T01:57:18.356Z,63.70
2018-10-02T01:59:46.518Z,63.70
2018-10-02T02:02:14.699Z,63.60
2018-10-02T02:04:42.847Z,63.50
2018-10-02T02:07:11.157Z,63.60
2018-10-02T02:09:39.303Z,63.50
2018-10-02T02:12:07.482Z,63.60
2018-10-02T02:14:35.643Z,63.50
2018-10-02T02:17:03.859Z,63.50
2018-10-02T02:19:32.032Z,63.40
2018-10-02T02:22:00.219Z,63.50
2018-10-02T02:24:28.445Z,63.50
2018-10-02T02:26:56.721Z,63.50
2018-10-02T02:29:24.852Z,63.30
2018-10-02T02:31:53.037Z,63.60
2018-10-02T02:34:21.194Z,63.60
2018-10-02T02:36:49.374Z,63.50
2018-10-02T02:39:17.540Z,63.60
2018-10-02T02:41:45.682Z,63.60
2018-10-02T02:44:13.887Z,64.50
2018-10-02T02:46:42.068Z,63.60
2018-10-02T02:49:15.830Z,63.80
2018-10-02T02:51:43.998Z,63.80
2018-10-02T02:54:12.157Z,63.80
2018-10-02T02:56:40.334Z,63.80
2018-10-02T02:59:08.691Z,64.00
2018-10-02T03:01:36.851Z,64.00
2018-10-02T03:04:05.030Z,63.70
2018-10-02T03:06:33.212Z,64.10
2018-10-02T03:09:01.392Z,64.20
2018-10-02T03:11:29.547Z,64.20
2018-10-02T03:13:57.725Z,64.00
2018-10-02T03:16:25.875Z,64.20
2018-10-02T03:18:54.080Z,64.30
2018-10-02T03:21:22.244Z,64.30
2018-10-02T03:23:50.402Z,64.20
2018-10-02T03:26:18.589Z,64.40
2018-10-02T03:28:46.761Z,64.30
2018-10-02T03:31:14.906Z,64.40
2018-10-02T03:33:43.052Z,64.50
2018-10-02T03:36:11.262Z,64.50
2018-10-02T03:38:39.406Z,64.70
2018-10-02T03:41:07.578Z,64.60
2018-10-02T03:43:35.783Z,64.60
2018-10-02T03:46:03.969Z,64.70
2018-10-02T03:48:32.113Z,64.80
2018-10-02T03:51:00.298Z,64.80
2018-10-02T03:53:28.492Z,64.80
2018-10-02T03:55:56.642Z,64.60
2018-10-02T03:58:24.802Z,65.60
2018-10-02T04:00:53.077Z,64.70
2018-10-02T04:03:21.267Z,64.70
2018-10-02T04:05:49.502Z,64.70
2018-10-02T04:08:17.647Z,64.70
2018-10-02T04:10:45.865Z,64.70
2018-10-02T04:13:14.018Z,64.60
2018-10-02T04:15:42.235Z,64.50
2018-10-02T04:18:10.418Z,64.70
2018-10-02T04:20:38.651Z,64.70
2018-10-02T04:23:06.757Z,64.70
2018-10-02T04:25:34.903Z,65.00
2018-10-02T04:28:03.103Z,64.90
2018-10-02T04:30:31.276Z,65.10
2018-10-02T04:32:59.543Z,65.80
2018-10-02T04:35:27.692Z,64.90
2018-10-02T04:37:55.873Z,65.00
2018-10-02T04:40:24.029Z,65.10
2018-10-02T04:42:52.288Z,64.80
2018-10-02T04:45:20.466Z,64.90
2018-10-02T04:47:52.309Z,64.90
2018-10-02T04:50:20.670Z,64.80
2018-10-02T04:52:48.834Z,64.90
2018-10-02T04:55:17.107Z,64.90
2018-10-02T04:57:45.361Z,65.10
2018-10-02T05:00:13.575Z,65.80
2018-10-02T05:02:41.725Z,64.70
2018-10-02T05:05:09.905Z,64.80
2018-10-02T05:07:38.218Z,65.00
2018-10-02T05:10:06.395Z,65.10
2018-10-02T05:12:34.564Z,65.30
2018-10-02T05:15:02.803Z,65.40
2018-10-02T05:17:30.970Z,65.40
2018-10-02T05:19:59.171Z,65.60
2018-10-02T05:22:27.331Z,65.60
2018-10-02T05:24:55.592Z,65.50
2018-10-02T05:27:24.102Z,65.40
2018-10-02T05:29:52.310Z,65.60
2018-10-02T05:32:20.552Z,65.80
2018-10-02T05:34:48.763Z,66.10
2018-10-02T05:37:16.940Z,66.20
2018-10-02T05:39:45.101Z,66.20
2018-10-02T05:42:13.266Z,66.30
2018-10-02T05:44:41.454Z,66.40
2018-10-02T05:47:09.613Z,66.50
2018-10-02T05:49:37.767Z,66.50
2018-10-02T05:52:05.908Z,66.60
2018-10-02T05:54:34.076Z,67.40
2018-10-02T05:57:02.225Z,66.70
2018-10-02T05:59:30.380Z,66.90
2018-10-02T06:01:58.636Z,66.80
2018-10-02T06:04:26.799Z,67.10
2018-10-02T06:06:54.992Z,67.20
2018-10-02T06:09:23.184Z,67.10
2018-10-02T06:11:51.345Z,66.90
2018-10-02T06:14:19.520Z,67.10
2018-10-02T06:16:47.718Z,67.20
2018-10-02T06:19:15.883Z,67.40
2018-10-02T06:21:44.039Z,67.30
2018-10-02T06:24:12.210Z,67.50
2018-10-02T06:26:40.395Z,67.50
2018-10-02T06:29:08.576Z,67.40
2018-10-02T06:31:36.735Z,67.30
2018-10-02T06:34:04.923Z,67.40
2018-10-02T06:36:33.434Z,67.90
2018-10-02T06:39:01.731Z,68.00
2018-10-02T06:41:29.834Z,68.00
2018-10-02T06:43:58.047Z,67.90
2018-10-02T06:46:26.220Z,68.10
2018-10-02T06:48:54.407Z,68.00
2018-10-02T06:51:22.744Z,68.20
2018-10-02T06:53:50.892Z,68.10
2018-10-02T06:56:19.503Z,68.10
2018-10-02T06:58:47.694Z,68.10
2018-10-02T07:01:15.893Z,68.20
2018-10-02T07:03:44.068Z,68.20
2018-10-02T07:06:12.270Z,68.30
2018-10-02T07:08:40.481Z,68.20
2018-10-02T07:11:08.742Z,68.50
2018-10-02T07:13:36.979Z,68.30
2018-10-02T07:16:05.287Z,68.30
2018-10-02T07:18:33.605Z,68.20
2018-10-02T07:21:01.993Z,68.30
2018-10-02T07:23:30.130Z,68.20
2018-10-02T07:25:58.302Z,68.10
2018-10-02T07:28:26.561Z,68.20
2018-10-02T07:30:54.967Z,68.10
2018-10-02T07:33:23.090Z,68.10
2018-10-02T07:35:51.309Z,68.10
2018-10-02T07:38:19.542Z,68.10
2018-10-02T07:40:47.728Z,68.20
2018-10-02T07:43:15.906Z,68.30
2018-10-02T07:45:44.174Z,68.40
2018-10-02T07:48:12.450Z,69.10
2018-10-02T07:50:40.904Z,68.50
2018-10-02T07:53:09.277Z,68.40
2018-10-02T07:55:37.514Z,68.40
2018-10-02T07:58:05.981Z,68.60
2018-10-02T08:00:34.242Z,68.50
2018-10-02T08:03:02.558Z,68.70
2018-10-02T08:05:30.722Z,68.60
2018-10-02T08:07:58.991Z,68.70
2018-10-02T08:10:27.170Z,68.80
2018-10-02T08:12:55.354Z,68.70
2018-10-02T08:15:23.592Z,68.90
2018-10-02T08:17:51.777Z,69.00
2018-10-02T08:20:19.918Z,69.10
2018-10-02T08:22:48.343Z,69.20
2018-10-02T08:25:16.543Z,69.10
2018-10-02T08:27:44.890Z,69.20
2018-10-02T08:30:13.105Z,69.20
2018-10-02T08:32:41.302Z,69.30
2018-10-02T08:35:09.660Z,69.20
2018-10-02T08:37:37.908Z,69.40
2018-10-02T08:40:06.051Z,69.50
2018-10-02T08:42:34.218Z,69.40
2018-10-02T08:45:03.704Z,69.40
2018-10-02T08:47:31.946Z,69.30
2018-10-02T08:50:00.080Z,69.30
2018-10-02T08:52:28.490Z,69.60
2018-10-02T08:54:56.647Z,69.60
2018-10-02T08:57:25.792Z,69.70
2018-10-02T08:59:53.951Z,70.00
2018-10-02T09:02:22.146Z,70.00
2018-10-02T09:04:50.314Z,70.20
2018-10-02T09:07:18.527Z,70.40
2018-10-02T09:09:46.678Z,70.30
2018-10-02T09:12:15.262Z,70.80
2018-10-02T09:14:43.866Z,70.80
2018-10-02T09:17:12.037Z,70.70
2018-10-02T09:19:40.232Z,70.70
2018-10-02T09:22:08.626Z,70.40
2018-10-02T09:24:36.836Z,70.70
2018-10-02T09:27:05.154Z,70.80
2018-10-02T09:29:33.414Z,70.70
2018-10-02T09:32:07.009Z,70.80
2018-10-02T09:34:40.714Z,70.90
2018-10-02T09:37:14.511Z,70.80
2018-10-02T09:39:48.108Z,71.00
2018-10-02T09:42:21.708Z,71.00
2018-10-02T09:44:50.067Z,70.80
2018-10-02T09:47:18.239Z,70.80
2018-10-02T09:49:49.554Z,70.90
2018-10-02T09:52:17.708Z,70.70
2018-10-02T09:54:46.263Z,70.90
2018-10-02T09:57:14.404Z,70.80
2018-10-02T09:59:42.579Z,70.50
2018-10-02T10:02:15.206Z,70.80
2018-10-02T10:04:43.377Z,70.70
2018-10-02T10:07:11.710Z,71.40
2018-10-02T10:09:39.878Z,70.50
2018-10-02T10:12:08.052Z,70.90
2018-10-02T10:14:36.243Z,70.80
2018-10-02T10:17:04.440Z,71.00
2018-10-02T10:19:32.566Z,71.20
2018-10-02T10:22:00.809Z,71.20
2018-10-02T10:24:29.024Z,71.00
2018-10-02T10:26:57.194Z,71.10
2018-10-02T10:29:25.371Z,71.20
2018-10-02T10:31:53.522Z,71.20
2018-10-02T10:34:21.711Z,71.50
2018-10-02T10:36:49.854Z,71.70
2018-10-02T10:39:18.069Z,71.50
2018-10-02T10:41:46.238Z,71.40
2018-10-02T10:44:14.413Z,71.60
2018-10-02T10:46:42.573Z,71.80
2018-10-02T10:49:10.759Z,71.90
2018-10-02T10:51:39.011Z,71.90
2018-10-02T10:54:07.170Z,71.80
2018-10-02T10:56:35.420Z,71.80
2018-10-02T10:59:03.554Z,72.00
2018-10-02T11:01:32.282Z,72.30
2018-10-02T11:04:00.447Z,72.70
2018-10-02T11:06:28.723Z,72.60
2018-10-02T11:08:56.924Z,72.50
2018-10-02T11:11:25.077Z,72.50
2018-10-02T11:13:53.266Z,73.40
2018-10-02T11:16:21.423Z,72.70
2018-10-02T11:18:49.625Z,72.80
2018-10-02T11:21:17.857Z,73.10
2018-10-02T11:23:46.068Z,73.20
2018-10-02T11:26:14.302Z,73.30
2018-10-02T11:28:42.459Z,73.50
2018-10-02T11:31:10.667Z,73.50
2018-10-02T11:33:38.863Z,74.00
2018-10-02T11:36:07.096Z,74.10
2018-10-02T11:38:35.307Z,74.20
2018-10-02T11:41:03.496Z,74.20
2018-10-02T11:43:31.755Z,74.20
2018-10-02T11:45:59.923Z,74.40
2018-10-02T11:48:28.098Z,74.50
2018-10-02T11:50:56.364Z,74.60
2018-10-02T11:53:24.508Z,74.90
2018-10-02T11:55:52.792Z,74.80
2018-10-02T11:58:20.853Z,75.00
2018-10-02T12:00:49.107Z,75.30
2018-10-02T12:03:17.218Z,75.20
2018-10-02T12:05:45.437Z,75.30
2018-10-02T12:08:13.665Z,75.50
2018-10-02T12:10:41.878Z,75.50
2018-10-02T12:13:10.102Z,75.50
2018-10-02T12:15:38.887Z,75.60
2018-10-02T12:18:07.099Z,75.80
2018-10-02T12:20:35.307Z,75.70
2018-10-02T12:23:03.476Z,75.80
2018-10-02T12:25:31.716Z,75.90
2018-10-02T12:27:59.952Z,76.00
2018-10-02T12:30:28.147Z,76.10
2018-10-02T12:32:56.323Z,76.10
2018-10-02T12:35:24.533Z,76.10
2018-10-02T12:37:52.887Z,76.10
2018-10-02T12:40:21.195Z,75.40
2018-10-02T12:42:49.362Z,76.20
2018-10-02T12:45:17.593Z,76.20
2018-10-02T12:47:45.800Z,76.40
2018-10-02T12:50:13.991Z,76.50
2018-10-02T12:52:42.397Z,76.40
2018-10-02T12:55:10.489Z,76.50
2018-10-02T12:57:38.659Z,76.60
2018-10-02T13:00:06.863Z,76.70
2018-10-02T13:02:35.055Z,77.70
2018-10-02T13:05:03.207Z,77.00
2018-10-02T13:07:31.490Z,76.90
2018-10-02T13:09:59.731Z,77.10
2018-10-02T13:12:27.929Z,77.00
2018-10-02T13:14:56.147Z,77.00
2018-10-02T13:17:24.342Z,77.10
2018-10-02T13:19:52.524Z,77.20
2018-10-02T13:22:20.699Z,77.20
2018-10-02T13:24:48.933Z,77.30
2018-10-02T13:27:17.131Z,77.20
2018-10-02T13:29:45.432Z,77.30
2018-10-02T13:32:13.717Z,77.30
2018-10-02T13:34:41.861Z,77.40
2018-10-02T13:37:10.387Z,77.60
2018-10-02T13:39:38.559Z,77.60
2018-10-02T13:42:06.754Z,77.70
2018-10-02T13:44:34.975Z,77.80
2018-10-02T13:47:03.154Z,77.80
2018-10-02T13:49:31.370Z,78.00
2018-10-02T13:51:59.546Z,77.80
2018-10-02T13:54:27.722Z,78.20
2018-10-02T13:56:55.927Z,78.40
2018-10-02T13:59:24.143Z,78.30
2018-10-02T14:01:52.370Z,78.60
2018-10-02T14:04:20.591Z,78.70
2018-10-02T14:06:49.039Z,78.70
2018-10-02T14:09:17.999Z,78.70
2018-10-02T14:11:46.356Z,78.70
2018-10-02T14:14:14.663Z,78.80
2018-10-02T14:16:43.035Z,78.70
2018-10-02T14:19:11.463Z,78.80
2018-10-02T14:21:40.188Z,78.70
2018-10-02T14:24:08.850Z,78.70
2018-10-02T14:26:37.260Z,78.80
2018-10-02T14:29:06.423Z,78.70
2018-10-02T14:31:35.667Z,78.80
2018-10-02T14:34:04.009Z,78.70
2018-10-02T14:36:32.406Z,78.80
2018-10-02T14:39:01.020Z,78.70
2018-10-02T14:41:29.501Z,78.80
2018-10-02T14:43:58.081Z,78.80
2018-10-02T14:46:26.470Z,78.80
2018-10-02T14:48:55.085Z,78.80
2018-10-02T14:51:23.830Z,78.90
2018-10-02T14:53:52.435Z,78.80
2018-10-02T14:56:20.931Z,78.70
2018-10-02T14:58:49.235Z,78.90
2018-10-02T15:01:17.443Z,78.80
2018-10-02T15:03:45.782Z,78.80
2018-10-02T15:06:14.026Z,78.90
2018-10-02T15:08:42.296Z,78.80
2018-10-02T15:11:10.560Z,78.90
2018-10-02T15:13:39.696Z,79.00
2018-10-02T15:16:08.062Z,79.10
2018-10-02T15:18:36.424Z,79.10
2018-10-02T15:21:04.838Z,79.20
2018-10-02T15:23:33.359Z,79.00
2018-10-02T15:26:01.681Z,79.20
2018-10-02T15:28:29.936Z,79.00
2018-10-02T15:30:58.218Z,79.00
2018-10-02T15:33:26.788Z,78.90
2018-10-02T15:35:55.019Z,78.80
2018-10-02T15:38:23.358Z,78.70
2018-10-02T15:40:51.615Z,78.70
2018-10-02T15:43:19.787Z,78.60
2018-10-02T15:45:48.059Z,78.40
2018-10-02T15:48:16.396Z,78.30
2018-10-02T15:50:44.696Z,78.00
2018-10-02T15:53:12.996Z,77.90
2018-10-02T15:55:41.186Z,77.70
2018-10-02T15:58:09.592Z,77.30
2018-10-02T16:00:37.820Z,77.40
2018-10-02T16:03:06.179Z,77.10
2018-10-02T16:05:34.563Z,77.00
2018-10-02T16:08:02.753Z,76.70
2018-10-02T16:10:30.980Z,76.40
2018-10-02T16:12:59.494Z,76.10
2018-10-02T16:15:27.721Z,75.90
2018-10-02T16:17:55.911Z,75.70
2018-10-02T16:20:24.031Z,75.50
2018-10-02T16:22:52.656Z,75.30
2018-10-02T16:25:21.109Z,75.10
2018-10-02T16:27:49.651Z,74.70
2018-10-02T16:30:17.724Z,74.40
2018-10-02T16:32:45.887Z,74.20
2018-10-02T16:35:14.072Z,74.10
2018-10-02T16:37:42.242Z,73.90
2018-10-02T16:40:10.430Z,73.50
2018-10-02T16:42:38.654Z,73.00
2018-10-02T16:45:06.967Z,72.60
2018-10-02T16:47:35.189Z,71.80
2018-10-02T16:50:03.524Z,71.80
2018-10-02T16:52:31.802Z,71.20
2018-10-02T16:55:00.104Z,71.10
2018-10-02T16:57:28.474Z,71.00
2018-10-02T16:59:56.732Z,70.60
2018-10-02T17:02:25.228Z,70.60
2018-10-02T17:04:53.531Z,70.40
2018-10-02T17:07:21.819Z,70.00
2018-10-02T17:09:50.176Z,69.30
2018-10-02T17:12:18.522Z,68.60
2018-10-02T17:14:47.649Z,68.20
2018-10-02T17:17:15.854Z,67.70
2018-10-02T17:19:44.038Z,67.10
2018-10-02T17:22:12.369Z,66.70
2018-10-02T17:24:40.699Z,66.10
2018-10-02T17:27:08.889Z,65.80
2018-10-02T17:29:37.096Z,65.50
2018-10-02T17:32:05.377Z,65.40
2018-10-02T17:34:33.629Z,65.20
2018-10-02T17:37:02.005Z,65.10
2018-10-02T17:39:30.270Z,64.90
2018-10-02T17:41:58.646Z,65.20
2018-10-02T17:44:27.015Z,64.40
2018-10-02T17:46:57.836Z,64.30
2018-10-02T17:49:26.015Z,63.70
2018-10-02T17:51:54.336Z,63.40
2018-10-02T17:54:22.615Z,63.40
2018-10-02T17:56:50.859Z,64.00
2018-10-02T17:59:19.125Z,63.10
2018-10-02T18:01:47.315Z,62.90
2018-10-02T18:04:15.554Z,63.00
2018-10-02T18:06:43.930Z,63.70
2018-10-02T18:09:12.209Z,62.70
2018-10-02T18:11:40.418Z,62.60
2018-10-02T18:14:08.723Z,62.70
2018-10-02T18:16:37.224Z,62.70
2018-10-02T18:19:05.455Z,62.70
2018-10-02T18:21:33.700Z,62.60
2018-10-02T18:24:01.921Z,62.50
2018-10-02T18:26:30.999Z,62.40
2018-10-02T18:28:59.234Z,62.40
2018-10-02T18:31:27.509Z,62.20
2018-10-02T18:33:56.683Z,62.00
2018-10-02T18:36:25.148Z,61.80
2018-10-02T18:38:53.519Z,61.70
2018-10-02T18:41:21.771Z,61.60
2018-10-02T18:43:49.983Z,61.60
2018-10-02T18:46:18.152Z,61.50
2018-10-02T18:48:46.416Z,61.30
2018-10-02T18:51:14.766Z,61.40
2018-10-02T18:53:44.438Z,61.50
2018-10-02T18:56:12.765Z,61.70
2018-10-02T18:58:40.955Z,61.80
2018-10-02T19:01:09.251Z,62.00
2018-10-02T19:03:37.575Z,62.30
2018-10-02T19:06:05.840Z,62.40
2018-10-02T19:08:41.192Z,62.40
2018-10-02T19:11:14.904Z,62.50
2018-10-02T19:13:43.073Z,62.60
2018-10-02T19:16:16.749Z,62.30
2018-10-02T19:18:45.765Z,63.00
2018-10-02T19:21:23.512Z,62.20
2018-10-02T19:23:51.892Z,62.00
2018-10-02T19:26:21.639Z,62.00
2018-10-02T19:28:50.213Z,62.00
2018-10-02T19:31:24.080Z,61.80
2018-10-02T19:33:54.679Z,61.70
2018-10-02T19:36:23.152Z,61.40
2018-10-02T19:39:16.075Z,61.40
2018-10-02T19:41:45.957Z,61.40
2018-10-02T19:44:14.483Z,61.40
2018-10-02T19:46:48.920Z,61.30
2018-10-02T19:49:19.380Z,61.10
2018-10-02T19:51:53.774Z,61.20
2018-10-02T19:54:23.252Z,61.10
2018-10-02T19:56:51.652Z,61.20
2018-10-02T19:59:20.237Z,61.20
2018-10-02T20:01:48.699Z,61.30
2018-10-02T20:04:17.164Z,61.50
2018-10-02T20:06:45.371Z,61.30
2018-10-02T20:09:13.616Z,61.30
2018-10-02T20:11:42.089Z,61.20
2018-10-02T20:14:11.087Z,61.20
2018-10-02T20:16:39.634Z,61.30
2018-10-02T20:19:08.012Z,61.30
2018-10-02T20:21:36.373Z,60.60
2018-10-02T20:24:04.497Z,61.40
2018-10-02T20:26:32.859Z,61.50
2018-10-02T20:29:02.876Z,61.50
2018-10-02T20:31:33.624Z,61.40
2018-10-02T20:34:01.960Z,61.40
2018-10-02T20:36:30.348Z,61.40
2018-10-02T20:38:58.470Z,61.20
2018-10-02T20:41:26.679Z,61.30
2018-10-02T20:43:54.891Z,61.30
2018-10-02T20:46:23.078Z,61.40
2018-10-02T20:48:51.323Z,61.30
2018-10-02T20:51:19.463Z,61.30
2018-10-02T20:53:47.673Z,61.10
2018-10-02T20:56:15.953Z,61.10
2018-10-02T20:58:44.158Z,61.10
2018-10-02T21:01:12.339Z,61.10
2018-10-02T21:03:40.524Z,61.10
2018-10-02T21:06:08.738Z,61.10
2018-10-02T21:08:37.067Z,61.10
2018-10-02T21:11:05.356Z,61.10
2018-10-02T21:13:33.515Z,61.10
2018-10-02T21:16:01.688Z,61.20
2018-10-02T21:18:29.883Z,61.30
2018-10-02T21:20:58.075Z,61.30
2018-10-02T21:23:27.094Z,61.30
2018-10-02T21:25:55.668Z,61.30
2018-10-02T21:28:24.002Z,61.40
2018-10-02T21:30:52.265Z,62.10
2018-10-02T21:33:20.463Z,61.30
2018-10-02T21:35:48.655Z,61.30
2018-10-02T21:38:16.931Z,61.30
2018-10-02T21:40:45.141Z,61.30
2018-10-02T21:43:13.481Z,61.30
2018-10-02T21:45:41.735Z,61.40
2018-10-02T21:48:10.139Z,61.40
2018-10-02T21:50:38.355Z,61.40
2018-10-02T21:53:06.575Z,61.30
2018-10-02T21:55:34.756Z,61.40
2018-10-02T21:58:02.942Z,61.70
2018-10-02T22:00:32.251Z,62.60
2018-10-02T22:03:00.410Z,61.50
2018-10-02T22:05:28.772Z,62.60
2018-10-02T22:07:57.007Z,61.90
2018-10-02T22:10:25.222Z,62.00
2018-10-02T22:12:53.423Z,62.00
2018-10-02T22:15:21.664Z,62.00
2018-10-02T22:17:49.824Z,62.10
2018-10-02T22:20:18.001Z,62.10
2018-10-02T22:22:46.185Z,62.20
2018-10-02T22:25:14.474Z,62.20
2018-10-02T22:27:42.658Z,62.40
2018-10-02T22:30:12.207Z,62.40
2018-10-02T22:32:40.426Z,62.50
2018-10-02T22:35:08.625Z,62.60
2018-10-02T22:37:36.964Z,62.70
2018-10-02T22:40:05.200Z,62.80
2018-10-02T22:42:33.379Z,62.80
2018-10-02T22:45:01.569Z,63.00
2018-10-02T22:47:29.763Z,63.00
2018-10-02T22:49:58.031Z,63.20
2018-10-02T22:52:26.359Z,63.30
2018-10-02T22:54:54.642Z,63.30
2018-10-02T22:57:22.844Z,63.50
2018-10-02T22:59:51.183Z,63.40
2018-10-02T23:02:19.407Z,63.30
2018-10-02T23:04:47.590Z,63.40
2018-10-02T23:07:15.774Z,63.60
2018-10-02T23:09:43.973Z,63.60
2018-10-02T23:12:12.158Z,63.70
2018-10-02T23:14:40.331Z,63.80
2018-10-02T23:17:08.498Z,63.80
2018-10-02T23:19:36.670Z,63.80
2018-10-02T23:22:04.896Z,63.90
2018-10-02T23:24:33.066Z,64.30
2018-10-02T23:27:01.243Z,63.90
2018-10-02T23:29:29.414Z,63.80
2018-10-02T23:31:57.681Z,64.00
2018-10-02T23:34:25.826Z,64.00
2018-10-02T23:36:54.010Z,64.10
2018-10-02T23:39:22.159Z,64.10
2018-10-02T23:41:50.330Z,64.10
2018-10-02T23:44:18.490Z,64.30
2018-10-02T23:46:46.747Z,64.10
2018-10-02T23:49:14.971Z,64.10
2018-10-02T23:51:43.147Z,64.30
2018-10-02T23:54:11.327Z,64.30
2018-10-02T23:56:39.491Z,64.40
2018-10-02T23:59:09.509Z,64.40
